Search for airport 
image banner adimage banner adimage banner ad
image banner ad

52PN - Greencastle Usar Center

Located in Greencastle, United States

ICAO - 52PN, IATA -

Data provided by Airmate  

General information

Coordinates: N39°45'0" W77°41'59"
Elevation is 720 feet MSL.
Magnetic variation is -09° East
View others Airports in Pennsylvania

Operational data

Special qualification required
Current time UTC:
Current local time:
METAR: KHGR 071253Z 34004KT 10SM OVC065 11/06 A2989 RMK AO2 SLP131 T01060061
View NOTAMs / SUP AIP / TFR affecting this airport [VIEW]
Communications frequencies: [VIEW]

Runways:

Airport contact information

Address: Greencastle United States

Satellite view of 52PN